createdAt,value
2022-12-05T00:01:42.491Z,74.80
2022-12-05T00:04:44.523Z,74.50
2022-12-05T00:07:47.821Z,80.60
2022-12-05T00:10:49.528Z,74.20
2022-12-05T00:13:53.079Z,67.90
2022-12-05T00:16:54.951Z,70.80
2022-12-05T00:19:57.153Z,65.60
2022-12-05T00:22:59.077Z,69.10
2022-12-05T00:29:06.009Z,58.60
2022-12-05T00:32:07.809Z,53.90
2022-12-05T00:38:11.069Z,55.60
2022-12-05T00:41:15.877Z,52.10
2022-12-05T00:44:17.807Z,55.10
2022-12-05T00:47:19.497Z,54.70
2022-12-05T00:53:22.949Z,52.50
2022-12-05T00:56:25.781Z,52.10
2022-12-05T00:59:27.436Z,52.10
2022-12-05T01:02:30.257Z,51.00
2022-12-05T01:05:34.502Z,51.80
2022-12-05T01:08:36.730Z,46.80
2022-12-05T01:11:41.455Z,46.50
2022-12-05T01:14:43.612Z,48.10
2022-12-05T01:20:47.663Z,47.60
2022-12-05T01:23:49.604Z,45.70
2022-12-05T01:26:51.423Z,45.20
2022-12-05T01:29:53.512Z,47.40
2022-12-05T01:35:57.114Z,44.30
2022-12-05T01:38:59.426Z,51.20
2022-12-05T01:42:01.184Z,47.80
2022-12-05T01:48:11.759Z,47.50
2022-12-05T01:51:13.732Z,51.00
2022-12-05T01:54:17.080Z,54.30
2022-12-05T01:57:18.910Z,53.70
2022-12-05T02:00:21.589Z,61.30
2022-12-05T02:03:23.397Z,59.40
2022-12-05T02:06:26.399Z,55.10
2022-12-05T02:09:28.052Z,56.50
2022-12-05T02:12:29.718Z,55.90
2022-12-05T02:15:52.335Z,52.40
2022-12-05T02:19:16.132Z,64.90
2022-12-05T02:22:30.119Z,54.60
2022-12-05T02:25:38.981Z,54.10
2022-12-05T02:29:08.726Z,54.80
2022-12-05T02:32:36.529Z,58.90
2022-12-05T02:35:50.668Z,60.50
2022-12-05T02:39:03.555Z,65.30
2022-12-05T02:42:29.275Z,64.50
2022-12-05T02:45:32.541Z,65.80
2022-12-05T02:48:35.556Z,69.50
2022-12-05T02:51:47.169Z,67.10
2022-12-05T02:54:50.145Z,71.90
2022-12-05T02:57:55.596Z,69.30
2022-12-05T03:00:58.588Z,75.40
2022-12-05T03:04:04.166Z,69.00
2022-12-05T03:07:12.143Z,71.00
2022-12-05T03:10:15.318Z,70.20
2022-12-05T03:13:25.209Z,72.80
2022-12-05T03:16:32.627Z,66.00
2022-12-05T03:19:45.932Z,70.70
2022-12-05T03:23:15.631Z,71.10
2022-12-05T03:26:39.118Z,68.10
2022-12-05T03:29:56.774Z,67.40
2022-12-05T03:33:08.307Z,62.10
2022-12-05T03:36:20.189Z,62.40
2022-12-05T03:39:24.818Z,62.40
2022-12-05T03:42:32.119Z,60.00
2022-12-05T03:45:42.732Z,60.10
2022-12-05T03:48:53.920Z,58.90
2022-12-05T03:51:58.850Z,55.80
2022-12-05T03:55:07.711Z,58.10
2022-12-05T03:58:13.004Z,66.70
2022-12-05T04:01:16.898Z,63.30
2022-12-05T04:04:26.508Z,57.90
2022-12-05T04:07:29.335Z,60.00
2022-12-05T04:10:48.557Z,61.30
2022-12-05T04:13:54.783Z,57.50
2022-12-05T04:17:06.454Z,65.20
2022-12-05T04:20:38.810Z,58.80
2022-12-05T04:23:44.799Z,55.30
2022-12-05T04:26:56.930Z,61.10
2022-12-05T04:30:03.559Z,127.60
2022-12-05T04:33:10.061Z,76.40
2022-12-05T04:36:11.627Z,70.90
2022-12-05T04:39:23.105Z,63.10
2022-12-05T04:42:27.182Z,56.40
2022-12-05T04:45:30.104Z,55.20
2022-12-05T04:48:32.766Z,61.80
2022-12-05T04:51:35.876Z,61.90
2022-12-05T04:54:50.658Z,60.90
2022-12-05T04:58:01.712Z,53.40
2022-12-05T05:01:12.107Z,52.20
2022-12-05T05:04:26.334Z,54.90
2022-12-05T05:07:28.001Z,53.00
2022-12-05T05:13:39.774Z,57.00
2022-12-05T05:16:42.476Z,53.30
2022-12-05T05:19:44.178Z,51.60
2022-12-05T05:22:48.783Z,52.40
2022-12-05T05:25:55.330Z,51.60
2022-12-05T05:28:57.996Z,49.30
2022-12-05T05:31:59.727Z,43.80
2022-12-05T05:38:03.702Z,50.10
2022-12-05T05:41:06.655Z,49.10
2022-12-05T05:44:08.271Z,49.60
2022-12-05T05:47:09.944Z,50.60
2022-12-05T05:50:16.234Z,49.20
2022-12-05T05:53:21.379Z,50.90
2022-12-05T05:56:23.216Z,50.80
2022-12-05T06:02:26.607Z,53.40
2022-12-05T06:08:33.945Z,52.20
2022-12-05T06:11:35.707Z,54.60
2022-12-05T06:14:37.466Z,50.10
2022-12-05T06:17:39.086Z,57.00
2022-12-05T06:20:40.656Z,54.90
2022-12-05T06:23:42.488Z,52.00
2022-12-05T06:29:45.988Z,50.80
2022-12-05T06:32:48.977Z,49.70
2022-12-05T06:36:05.120Z,52.00
2022-12-05T06:39:06.897Z,47.50
2022-12-05T06:45:10.556Z,52.60
2022-12-05T06:48:12.458Z,47.10
2022-12-05T06:51:16.036Z,51.70
2022-12-05T06:54:17.717Z,51.10
2022-12-05T06:57:19.408Z,53.50
2022-12-05T07:03:44.081Z,57.20
2022-12-05T07:06:50.503Z,55.30
2022-12-05T07:09:54.146Z,55.20
2022-12-05T07:12:56.688Z,59.00
2022-12-05T07:15:59.320Z,51.80
2022-12-05T07:19:01.351Z,52.80
2022-12-05T07:22:03.593Z,52.70
2022-12-05T07:25:05.620Z,58.00
2022-12-05T07:28:08.520Z,53.20
2022-12-05T07:31:12.389Z,48.00
2022-12-05T07:34:14.029Z,52.70
2022-12-05T07:37:15.676Z,49.60
2022-12-05T07:40:17.521Z,53.40
2022-12-05T07:43:19.146Z,50.80
2022-12-05T07:46:21.530Z,51.10
2022-12-05T07:49:23.176Z,55.20
2022-12-05T07:52:24.944Z,60.30
2022-12-05T07:55:27.290Z,57.20
2022-12-05T07:58:29.808Z,53.60
2022-12-05T08:01:31.674Z,54.20
2022-12-05T08:04:33.585Z,49.80
2022-12-05T08:07:35.795Z,54.60
2022-12-05T08:10:38.598Z,53.00
2022-12-05T08:16:42.354Z,53.90
2022-12-05T08:19:44.184Z,47.80
2022-12-05T08:25:47.785Z,49.30
2022-12-05T08:31:54.892Z,54.20
2022-12-05T08:34:56.574Z,51.20
2022-12-05T08:37:58.486Z,50.90
2022-12-05T08:41:09.553Z,47.30
2022-12-05T08:44:16.187Z,53.20
2022-12-05T08:47:18.157Z,50.90
2022-12-05T08:50:19.900Z,51.50
2022-12-05T08:56:27.214Z,47.70
2022-12-05T08:59:29.512Z,46.70
2022-12-05T09:02:31.853Z,43.50
2022-12-05T09:05:33.622Z,42.60
2022-12-05T09:08:35.734Z,41.50
2022-12-05T09:11:41.448Z,44.30
2022-12-05T09:14:43.178Z,40.30
2022-12-05T09:20:46.525Z,39.60
2022-12-05T09:26:50.969Z,36.10
2022-12-05T09:29:52.729Z,35.30
2022-12-05T09:32:54.865Z,35.40
2022-12-05T09:35:56.554Z,33.70
2022-12-05T09:39:04.381Z,35.00
2022-12-05T09:42:34.045Z,32.20
2022-12-05T09:45:37.826Z,31.30
2022-12-05T09:48:41.100Z,32.10
2022-12-05T09:51:45.118Z,33.50
2022-12-05T09:54:48.207Z,31.60
2022-12-05T09:57:56.962Z,31.50
2022-12-05T10:01:42.726Z,32.80
2022-12-05T10:05:15.423Z,30.50
2022-12-05T10:08:32.154Z,30.40
2022-12-05T10:12:21.952Z,30.80
2022-12-05T10:15:32.606Z,32.50
2022-12-05T10:18:41.853Z,32.80
2022-12-05T10:22:20.103Z,28.50
2022-12-05T10:25:23.198Z,31.10
2022-12-05T10:28:40.133Z,29.60
2022-12-05T10:31:43.845Z,30.80
2022-12-05T10:34:46.632Z,29.70
2022-12-05T10:37:59.656Z,29.30
2022-12-05T10:41:08.310Z,28.40
2022-12-05T10:44:10.799Z,26.60
2022-12-05T10:47:12.846Z,25.10
2022-12-05T10:50:30.505Z,26.70
2022-12-05T10:53:45.703Z,26.40
2022-12-05T10:56:49.872Z,27.10
2022-12-05T10:59:52.325Z,25.40
2022-12-05T11:02:55.019Z,26.20
2022-12-05T11:06:00.075Z,27.30
2022-12-05T11:09:18.085Z,25.20
2022-12-05T11:12:26.066Z,27.60
2022-12-05T11:15:30.498Z,28.10
2022-12-05T11:18:34.270Z,26.20
2022-12-05T11:21:42.866Z,27.00
2022-12-05T11:24:45.105Z,28.20
2022-12-05T11:27:46.860Z,29.00
2022-12-05T11:30:59.698Z,29.70
2022-12-05T11:34:23.212Z,30.50
2022-12-05T11:37:27.326Z,30.40
2022-12-05T11:40:51.073Z,29.90
2022-12-05T11:43:58.920Z,29.40
2022-12-05T11:47:28.401Z,29.90
2022-12-05T11:51:01.173Z,29.10
2022-12-05T11:54:56.322Z,30.00
2022-12-05T11:58:16.632Z,29.60
2022-12-05T12:05:07.521Z,30.00
2022-12-05T12:08:25.193Z,31.80
2022-12-05T12:11:32.655Z,34.10
2022-12-05T12:14:54.283Z,35.40
2022-12-05T12:21:39.063Z,34.40
2022-12-05T12:24:43.508Z,32.00
2022-12-05T12:28:05.551Z,35.90
2022-12-05T12:31:13.342Z,34.20
2022-12-05T12:34:49.670Z,34.00
2022-12-05T12:38:32.821Z,35.90
2022-12-05T12:41:49.971Z,33.50
2022-12-05T12:45:06.685Z,34.80
2022-12-05T12:48:47.526Z,34.70
2022-12-05T12:51:53.872Z,33.80
2022-12-05T12:55:10.948Z,34.70
2022-12-05T12:58:30.333Z,36.00
2022-12-05T13:01:39.525Z,31.90
2022-12-05T13:04:58.367Z,35.90
2022-12-05T13:08:04.723Z,36.40
2022-12-05T13:11:09.184Z,36.80
2022-12-05T13:14:17.916Z,35.80
2022-12-05T13:17:21.024Z,37.90
2022-12-05T13:20:26.105Z,37.90
2022-12-05T13:23:30.582Z,35.50
2022-12-05T13:26:36.709Z,36.30
2022-12-05T13:29:47.675Z,37.70
2022-12-05T13:32:56.785Z,37.10
2022-12-05T13:36:24.485Z,37.30
2022-12-05T13:39:44.970Z,36.10
2022-12-05T13:42:48.186Z,39.00
2022-12-05T13:46:03.335Z,37.80
2022-12-05T13:49:17.354Z,41.00
2022-12-05T13:52:26.558Z,41.60
2022-12-05T13:55:37.534Z,37.10
2022-12-05T13:58:48.789Z,37.70
2022-12-05T14:01:55.816Z,34.30
2022-12-05T14:04:58.185Z,65.30
2022-12-05T14:08:03.819Z,47.20
2022-12-05T14:11:09.475Z,41.80
2022-12-05T14:14:11.201Z,44.80
2022-12-05T14:17:14.260Z,42.40
2022-12-05T14:20:15.981Z,106.50
2022-12-05T14:23:31.519Z,47.20
2022-12-05T14:26:58.367Z,87.90
2022-12-05T14:30:20.389Z,50.20
2022-12-05T14:33:22.964Z,46.90
2022-12-05T14:36:30.976Z,45.90
2022-12-05T14:39:42.080Z,47.20
2022-12-05T14:42:44.568Z,56.60
2022-12-05T14:45:52.562Z,63.10
2022-12-05T14:48:56.249Z,76.20
2022-12-05T14:51:58.095Z,70.30
2022-12-05T14:55:12.044Z,63.20
2022-12-05T14:58:20.922Z,63.60
2022-12-05T15:01:26.659Z,56.00
2022-12-05T15:04:36.457Z,73.90
2022-12-05T15:07:39.125Z,74.20
2022-12-05T15:10:43.126Z,79.30
2022-12-05T15:13:44.820Z,84.90
2022-12-05T15:19:59.530Z,47.70
2022-12-05T15:23:01.345Z,48.50
2022-12-05T15:29:28.274Z,65.70
2022-12-05T15:32:30.288Z,57.80
2022-12-05T15:41:35.621Z,65.30
2022-12-05T15:44:38.454Z,58.30
2022-12-05T15:47:45.256Z,56.80
2022-12-05T15:50:51.335Z,59.00
2022-12-05T15:53:59.878Z,65.80
2022-12-05T15:57:16.367Z,65.30
2022-12-05T16:00:19.771Z,59.60
2022-12-05T16:03:28.683Z,77.40
2022-12-05T16:06:49.991Z,98.10
2022-12-05T16:09:56.310Z,83.30
2022-12-05T16:13:07.386Z,97.60
2022-12-05T16:16:13.531Z,88.70
2022-12-05T16:19:17.877Z,77.20
2022-12-05T16:22:23.728Z,88.90
2022-12-05T16:25:30.396Z,76.30
2022-12-05T16:28:33.081Z,76.90
2022-12-05T16:31:34.988Z,81.40
2022-12-05T16:34:36.768Z,73.40
2022-12-05T16:40:46.240Z,121.50
2022-12-05T16:43:48.160Z,122.90
2022-12-05T16:46:50.348Z,111.50
2022-12-05T16:49:52.490Z,95.40
2022-12-05T16:53:21.588Z,87.60
2022-12-05T16:56:25.920Z,80.70
2022-12-05T16:59:38.545Z,90.40
2022-12-05T17:02:40.510Z,122.10
2022-12-05T17:05:42.369Z,167.30
2022-12-05T17:11:47.390Z,74.70
2022-12-05T17:14:49.684Z,85.30
2022-12-05T17:17:51.484Z,86.10
2022-12-05T17:20:55.095Z,86.30
2022-12-05T17:23:57.415Z,99.40
2022-12-05T17:26:59.078Z,76.20
2022-12-05T17:30:01.007Z,78.60
2022-12-05T17:33:02.911Z,90.30
2022-12-05T17:36:05.105Z,98.90
2022-12-05T17:39:06.737Z,126.40
2022-12-05T17:42:08.612Z,123.00
2022-12-05T17:45:14.818Z,111.80
2022-12-05T17:48:16.691Z,121.30
2022-12-05T17:51:19.521Z,120.30
2022-12-05T17:54:21.488Z,125.70
2022-12-05T18:00:25.357Z,133.00
2022-12-05T18:03:27.483Z,181.70
2022-12-05T18:06:29.328Z,132.10
2022-12-05T18:12:33.093Z,93.20
2022-12-05T18:15:38.040Z,78.70
2022-12-05T18:18:42.675Z,75.50
2022-12-05T18:21:47.515Z,93.40
2022-12-05T18:24:49.491Z,80.40
2022-12-05T18:31:10.636Z,106.00
2022-12-05T18:34:12.612Z,99.50
2022-12-05T18:37:16.394Z,100.20
2022-12-05T18:40:18.164Z,121.10
2022-12-05T18:46:21.730Z,95.70
2022-12-05T18:52:25.831Z,98.30
2022-12-05T18:55:57.999Z,90.70
2022-12-05T18:58:59.050Z,95.00
2022-12-05T19:02:01.100Z,112.50
2022-12-05T19:05:03.265Z,115.00
2022-12-05T19:08:05.201Z,146.20
2022-12-05T19:11:07.392Z,170.30
2022-12-05T19:14:10.401Z,144.70
2022-12-05T19:17:12.178Z,155.00
2022-12-05T19:20:14.028Z,159.40
2022-12-05T19:26:17.355Z,128.10
2022-12-05T19:32:20.608Z,125.60
2022-12-05T19:35:22.244Z,138.60
2022-12-05T19:38:24.085Z,137.00
2022-12-05T19:44:28.536Z,109.40
2022-12-05T19:50:32.893Z,83.60
2022-12-05T19:53:37.503Z,75.70
2022-12-05T19:56:39.917Z,74.80
2022-12-05T19:59:41.580Z,80.60
2022-12-05T20:05:57.984Z,80.50
2022-12-05T20:12:04.231Z,74.80
2022-12-05T20:15:06.568Z,111.40
2022-12-05T20:18:08.153Z,108.90
2022-12-05T20:21:14.390Z,86.70
2022-12-05T20:24:16.073Z,89.20
2022-12-05T20:30:19.643Z,82.60
2022-12-05T20:33:21.338Z,87.20
2022-12-05T20:36:26.042Z,93.30
2022-12-05T20:39:29.602Z,101.30
2022-12-05T20:42:31.313Z,93.20
2022-12-05T20:48:36.017Z,100.30
2022-12-05T20:51:41.060Z,98.00
2022-12-05T20:54:42.945Z,98.60
2022-12-05T20:57:44.773Z,127.20
2022-12-05T21:00:46.491Z,101.40
2022-12-05T21:03:50.504Z,103.60
2022-12-05T21:06:52.216Z,98.90
2022-12-05T21:12:56.012Z,105.50
2022-12-05T21:15:57.906Z,104.40
2022-12-05T21:19:00.115Z,105.70
2022-12-05T21:22:01.889Z,101.50
2022-12-05T21:28:05.388Z,105.90
2022-12-05T21:34:20.593Z,110.70
2022-12-05T21:37:22.520Z,122.60
2022-12-05T21:40:24.242Z,149.80
2022-12-05T21:46:27.884Z,135.50
2022-12-05T21:49:29.622Z,136.70
2022-12-05T21:55:35.293Z,131.20
2022-12-05T21:58:42.442Z,132.50
2022-12-05T22:01:44.493Z,127.20
2022-12-05T22:04:46.316Z,140.90
2022-12-05T22:10:49.733Z,155.00
2022-12-05T22:13:52.428Z,144.00
2022-12-05T22:16:54.217Z,151.40
2022-12-05T22:19:57.550Z,146.80
2022-12-05T22:22:59.348Z,142.70
2022-12-05T22:26:03.547Z,136.80
2022-12-05T22:29:05.262Z,122.90
2022-12-05T22:32:07.168Z,129.30
2022-12-05T22:35:13.882Z,121.70
2022-12-05T22:38:16.518Z,174.80
2022-12-05T22:41:21.187Z,150.50
2022-12-05T22:44:22.996Z,144.40
2022-12-05T22:50:26.581Z,130.70
2022-12-05T22:53:28.792Z,124.90
2022-12-05T22:56:30.518Z,137.60
2022-12-05T23:02:33.802Z,133.40
2022-12-05T23:08:42.607Z,125.20
2022-12-05T23:11:44.302Z,126.30
2022-12-05T23:17:48.377Z,132.40
2022-12-05T23:20:50.455Z,119.70
2022-12-05T23:23:54.593Z,125.40
2022-12-05T23:26:56.252Z,130.80
2022-12-05T23:29:58.138Z,113.80
2022-12-05T23:33:00.086Z,132.80
2022-12-05T23:39:04.236Z,130.40
2022-12-05T23:42:09.607Z,139.40
2022-12-05T23:45:14.124Z,137.30
2022-12-05T23:48:15.741Z,136.40
2022-12-05T23:51:25.373Z,118.80
2022-12-05T23:54:27.076Z,125.40
